Time;durP1;ratioP1;P1;durP2;ratioP2;P2;SDS_P1;SDS_P2;PMS_P1;PMS_P2;Temp;Humidity;BMP_temperature;BMP_pressure;BME280_temperature;BME280_humidity;BME280_pressure;Samples;Min_cycle;Max_cycle;Signal;HPM_P1;HPM_P2
2021/04/07 00:00:43;;;;;;;21.10;13.40;;;6.30;81.20;;;;;;5094906;28;21547;-79
2021/04/07 00:03:13;;;;;;;15.40;12.30;;;6.30;81.20;;;;;;5091563;28;20482;-78
2021/04/07 00:05:43;;;;;;;19.27;12.77;;;6.30;81.30;;;;;;5095037;28;20489;-79
2021/04/07 00:08:10;;;;;;;16.30;10.88;;;6.30;81.20;;;;;;5095226;28;20103;-78
2021/04/07 00:10:39;;;;;;;16.15;13.18;;;6.30;81.20;;;;;;5094669;28;20097;-77
2021/04/07 00:13:07;;;;;;;15.40;10.48;;;6.30;80.90;;;;;;5095180;28;20165;-78
2021/04/07 00:15:33;;;;;;;;;;;6.30;80.50;;;;;;5095262;28;20822;-78
2021/04/07 00:17:59;;;;;;;13.52;10.95;;;6.30;80.00;;;;;;5095193;28;19904;-78
2021/04/07 00:20:27;;;;;;;16.25;9.93;;;6.30;80.40;;;;;;5094751;28;20021;-79
2021/04/07 00:22:53;;;;;;;19.75;11.73;;;6.30;80.60;;;;;;5095856;28;20127;-79
2021/04/07 00:25:21;;;;;;;16.60;11.82;;;6.30;80.40;;;;;;5094898;28;20500;-79
2021/04/07 00:27:57;;;;;;;15.30;12.32;;;6.30;80.20;;;;;;5094567;28;20097;-79
2021/04/07 00:30:25;;;;;;;17.00;11.68;;;6.30;80.40;;;;;;5093541;28;20032;-79
2021/04/07 00:32:51;;;;;;;14.65;11.48;;;6.30;80.40;;;;;;5094602;28;20108;-80
2021/04/07 00:35:18;;;;;;;17.33;12.23;;;6.30;80.20;;;;;;5094472;28;20020;-78
2021/04/07 00:37:43;;;;;;;14.73;12.48;;;6.30;80.10;;;;;;5094606;28;20028;-79
2021/04/07 00:40:10;;;;;;;16.13;11.20;;;6.30;80.10;;;;;;5094551;28;20047;-80
2021/04/07 00:42:36;;;;;;;17.43;12.37;;;6.30;80.30;;;;;;5094769;28;20024;-81
2021/04/07 00:45:08;;;;;;;16.38;11.32;;;6.30;80.30;;;;;;5094298;28;20533;-80
2021/04/07 00:47:34;;;;;;;14.32;11.38;;;6.30;80.50;;;;;;5094686;28;20044;-81
2021/04/07 00:50:00;;;;;;;14.00;11.90;;;6.30;80.30;;;;;;5094387;28;20019;-81
2021/04/07 00:52:25;;;;;;;13.80;11.18;;;6.30;80.00;;;;;;5084474;28;20021;-79
2021/04/07 00:54:56;;;;;;;17.23;13.00;;;6.30;80.00;;;;;;5092280;28;20073;-80
2021/04/07 00:57:23;;;;;;;16.20;12.35;;;6.40;80.00;;;;;;5094080;28;20103;-80
2021/04/07 00:59:50;;;;;;;19.10;11.90;;;6.40;80.00;;;;;;5093543;28;20028;-82
2021/04/07 01:02:17;;;;;;;15.43;12.27;;;6.40;80.00;;;;;;5094148;28;20028;-81
2021/04/07 01:04:46;;;;;;;15.65;12.73;;;6.50;79.70;;;;;;5094119;28;20413;-81
2021/04/07 01:07:13;;;;;;;14.90;10.98;;;6.50;79.30;;;;;;5093767;28;20040;-81
2021/04/07 01:09:39;;;;;;;17.90;13.50;;;6.50;79.10;;;;;;5094077;28;20024;-78
2021/04/07 01:12:06;;;;;;;17.88;12.43;;;6.50;78.90;;;;;;5093833;28;20515;-79
2021/04/07 01:14:34;;;;;;;20.58;11.98;;;6.60;78.90;;;;;;5093455;28;20020;-79
2021/04/07 01:17:00;;;;;;;18.30;12.57;;;6.60;78.90;;;;;;5093786;28;20116;-80
2021/04/07 01:19:26;;;;;;;17.70;12.98;;;6.60;78.80;;;;;;5089595;28;20465;-80
2021/04/07 01:21:53;;;;;;;15.77;13.13;;;6.60;78.80;;;;;;5086042;28;20035;-81
2021/04/07 01:24:21;;;;;;;18.65;14.57;;;6.60;78.90;;;;;;5093959;28;20354;-81
2021/04/07 01:26:48;;;;;;;17.98;14.00;;;6.60;78.90;;;;;;5093857;28;20035;-81
2021/04/07 01:29:14;;;;;;;20.70;14.35;;;6.60;78.90;;;;;;5088786;28;20020;-80
2021/04/07 01:31:47;;;;;;;20.27;13.80;;;6.70;78.90;;;;;;5096633;28;20403;-80
2021/04/07 01:34:23;;;;;;;18.50;12.75;;;6.70;78.10;;;;;;5094347;28;20481;-80
2021/04/07 01:36:50;;;;;;;18.48;12.95;;;6.80;77.50;;;;;;5084478;28;20043;-80
2021/04/07 01:39:16;;;;;;;18.83;12.55;;;6.80;77.30;;;;;;5090128;28;20053;-82
2021/04/07 01:41:43;;;;;;;19.30;13.75;;;6.90;77.30;;;;;;5093598;28;20578;-81
2021/04/07 01:44:10;;;;;;;16.92;12.93;;;6.90;77.40;;;;;;5092092;28;20023;-80
2021/04/07 01:46:39;;;;;;;20.07;14.80;;;7.00;77.00;;;;;;5087519;28;20028;-82
2021/04/07 01:49:08;;;;;;;19.67;13.50;;;7.00;76.60;;;;;;5092974;28;20260;-79
2021/04/07 01:51:35;;;;;;;16.40;13.52;;;7.00;76.50;;;;;;5093652;28;20396;-82
2021/04/07 01:54:02;;;;;;;22.17;13.68;;;7.10;76.30;;;;;;5089345;28;20047;-81
2021/04/07 01:56:28;;;;;;;19.75;13.98;;;7.10;76.00;;;;;;5089725;28;20099;-79
2021/04/07 01:59:06;;;;;;;23.80;14.82;;;7.10;76.00;;;;;;5097606;28;20056;-80
2021/04/07 02:01:35;;;;;;;;;;;7.10;75.90;;;;;;5107125;28;20437;-78
2021/04/07 02:04:02;;;;;;;20.33;13.45;;;7.10;75.70;;;;;;5100050;28;19908;-79
2021/04/07 02:06:28;;;;;;;21.30;13.23;;;7.10;75.80;;;;;;5104399;28;20165;-78
2021/04/07 02:08:54;;;;;;;22.88;13.40;;;7.10;75.70;;;;;;5097455;28;20303;-80
2021/04/07 02:11:20;;;;;;;23.40;15.25;;;7.20;75.80;;;;;;5101208;28;20051;-79
2021/04/07 02:13:45;;;;;;;23.58;14.75;;;7.20;75.80;;;;;;5084739;28;20114;-80
2021/04/07 02:16:13;;;;;;;25.55;16.02;;;7.20;75.70;;;;;;5109609;28;20169;-78
2021/04/07 02:18:40;;;;;;;26.73;15.88;;;7.20;75.30;;;;;;5112346;28;20038;-78
2021/04/07 02:21:06;;;;;;;21.10;14.30;;;7.20;75.00;;;;;;5109290;28;20115;-78
2021/04/07 02:23:34;;;;;;;22.30;15.13;;;7.30;74.90;;;;;;5104018;28;20047;-78
2021/04/07 02:25:59;;;;;;;22.02;13.70;;;7.30;74.70;;;;;;5108621;28;20027;-80
2021/04/07 02:28:26;;;;;;;18.88;13.85;;;7.30;74.80;;;;;;5104364;28;20025;-80
2021/04/07 02:30:51;;;;;;;30.10;16.42;;;7.30;74.90;;;;;;5099455;28;20077;-80
2021/04/07 02:33:18;;;;;;;23.75;15.63;;;7.30;74.50;;;;;;5110516;28;20094;-80
2021/04/07 02:35:44;;;;;;;23.75;15.82;;;7.40;74.20;;;;;;5111403;28;20042;-80
2021/04/07 02:38:10;;;;;;;21.83;15.35;;;7.40;74.10;;;;;;5112054;28;20023;-80
2021/04/07 02:40:36;;;;;;;19.75;14.48;;;7.40;74.10;;;;;;5112461;28;20114;-80
2021/04/07 02:43:02;;;;;;;26.25;14.95;;;7.30;73.80;;;;;;5112060;28;20024;-81
2021/04/07 02:45:27;;;;;;;26.02;14.13;;;7.30;73.90;;;;;;5112191;28;20103;-80
2021/04/07 02:47:53;;;;;;;19.85;14.07;;;7.30;74.50;;;;;;5112452;28;20031;-80
2021/04/07 02:50:19;;;;;;;19.48;13.23;;;7.30;73.60;;;;;;5111796;28;20027;-80
2021/04/07 02:52:45;;;;;;;20.73;14.60;;;7.30;73.20;;;;;;5112403;28;20034;-79
2021/04/07 02:55:11;;;;;;;18.75;14.40;;;7.30;73.20;;;;;;5111528;28;20055;-79
2021/04/07 02:57:37;;;;;;;21.17;13.45;;;7.20;73.00;;;;;;5112254;28;20076;-79
2021/04/07 03:00:06;;;;;;;17.45;14.70;;;7.20;73.00;;;;;;5107123;28;20469;-80
2021/04/07 03:02:31;;;;;;;20.80;15.00;;;7.20;73.40;;;;;;5106215;28;20034;-79
2021/04/07 03:04:58;;;;;;;19.88;14.65;;;7.30;73.60;;;;;;5092305;28;20016;-79
2021/04/07 03:07:24;;;;;;;24.70;14.82;;;7.30;73.20;;;;;;5091943;28;20032;-80
2021/04/07 03:09:50;;;;;;;19.45;13.63;;;7.20;73.10;;;;;;5093061;28;20397;-80
2021/04/07 03:12:16;;;;;;;24.27;16.55;;;7.20;73.30;;;;;;5092056;28;20522;-80
2021/04/07 03:14:41;;;;;;;20.10;14.93;;;7.30;73.50;;;;;;5092116;28;20024;-80
2021/04/07 03:17:07;;;;;;;22.17;15.32;;;7.20;73.10;;;;;;5093436;28;20024;-80
2021/04/07 03:19:33;;;;;;;19.33;13.63;;;7.20;73.10;;;;;;5093238;28;20040;-80
2021/04/07 03:21:59;;;;;;;22.65;15.98;;;7.20;73.00;;;;;;5100832;28;20016;-80
2021/04/07 03:24:25;;;;;;;22.55;15.13;;;7.10;73.10;;;;;;5097666;28;20024;-79
2021/04/07 03:26:50;;;;;;;21.88;14.90;;;7.20;73.30;;;;;;5095906;28;20035;-80
2021/04/07 03:29:16;;;;;;;27.67;16.25;;;7.20;73.40;;;;;;5095936;28;20457;-80
2021/04/07 03:31:42;;;;;;;20.10;14.63;;;7.20;73.50;;;;;;5095956;28;20032;-79
2021/04/07 03:34:08;;;;;;;22.55;16.08;;;7.20;73.20;;;;;;5096405;28;20031;-78
2021/04/07 03:36:33;;;;;;;21.55;15.90;;;7.20;73.30;;;;;;5088316;28;20081;-78
2021/04/07 03:38:59;;;;;;;20.38;15.77;;;7.20;73.10;;;;;;5095548;28;20066;-80
2021/04/07 03:41:28;;;;;;;19.92;14.75;;;7.30;73.20;;;;;;5098503;28;20021;-79
2021/04/07 03:43:54;;;;;;;21.65;14.40;;;7.30;73.00;;;;;;5098121;28;20020;-80
2021/04/07 03:46:19;;;;;;;24.67;16.02;;;7.30;73.00;;;;;;5095813;28;20550;-79
2021/04/07 03:48:45;;;;;;;23.80;14.63;;;7.30;73.30;;;;;;5095815;28;20062;-79
2021/04/07 03:51:11;;;;;;;21.25;15.73;;;7.30;73.30;;;;;;5095297;28;20465;-79
2021/04/07 03:53:37;;;;;;;24.80;14.68;;;7.40;73.40;;;;;;5095416;28;20016;-79
2021/04/07 03:56:03;;;;;;;20.88;14.73;;;7.40;73.20;;;;;;5095486;28;20024;-79
2021/04/07 03:58:28;;;;;;;24.85;15.30;;;7.40;73.20;;;;;;5095362;28;20016;-80
2021/04/07 04:00:54;;;;;;;21.50;15.70;;;7.50;73.20;;;;;;5094137;28;20028;-79
2021/04/07 04:03:21;;;;;;;24.98;15.15;;;7.50;72.80;;;;;;5095148;28;20123;-79
2021/04/07 04:05:48;;;;;;;21.17;14.57;;;7.50;72.70;;;;;;5095128;28;20031;-81
2021/04/07 04:08:14;;;;;;;20.63;17.02;;;7.50;72.70;;;;;;5095164;28;20028;-79
2021/04/07 04:10:40;;;;;;;22.20;14.30;;;7.40;72.80;;;;;;5094853;28;20126;-79
2021/04/07 04:13:06;;;;;;;29.55;17.95;;;7.50;72.90;;;;;;5095309;28;20104;-79
2021/04/07 04:15:32;;;;;;;30.80;16.55;;;7.50;72.80;;;;;;5095155;28;20476;-81
2021/04/07 04:17:58;;;;;;;21.15;15.38;;;7.60;72.80;;;;;;5094333;28;20031;-81
2021/04/07 04:20:24;;;;;;;28.00;16.88;;;7.60;72.70;;;;;;5095614;28;20389;-81
2021/04/07 04:22:50;;;;;;;23.10;17.73;;;7.70;72.80;;;;;;5095746;28;20028;-81
2021/04/07 04:25:18;;;;;;;23.05;16.50;;;7.70;72.50;;;;;;5094762;28;20024;-79
2021/04/07 04:27:44;;;;;;;24.02;16.52;;;7.70;72.40;;;;;;5107978;28;20034;-80
2021/04/07 04:30:13;;;;;;;30.48;16.60;;;7.70;72.40;;;;;;5093123;28;20028;-80
2021/04/07 04:32:39;;;;;;;26.80;17.67;;;7.80;72.40;;;;;;5105720;28;20024;-79
2021/04/07 04:35:06;;;;;;;24.02;15.88;;;7.80;72.20;;;;;;5109209;27;20016;-82
2021/04/07 04:37:32;;;;;;;26.87;17.10;;;7.80;72.40;;;;;;5106295;28;20016;-79
2021/04/07 04:39:58;;;;;;;27.90;20.70;;;7.70;72.20;;;;;;5110784;28;20255;-80
2021/04/07 04:42:24;;;;;;;30.20;17.80;;;7.70;72.40;;;;;;5108082;28;20102;-81
2021/04/07 04:44:59;;;;;;;21.90;17.38;;;7.70;72.70;;;;;;5108583;28;20023;-81
2021/04/07 04:47:25;;;;;;;25.17;17.92;;;7.70;72.70;;;;;;5109218;27;20396;-81
2021/04/07 04:49:51;;;;;;;25.65;18.30;;;7.70;72.70;;;;;;5109957;28;20111;-80
2021/04/07 04:52:21;;;;;;;23.55;18.00;;;7.70;72.80;;;;;;5109234;28;20024;-81
2021/04/07 04:54:47;;;;;;;26.80;18.40;;;7.70;72.80;;;;;;5107249;28;20024;-80
2021/04/07 04:57:13;;;;;;;23.70;18.30;;;7.70;72.90;;;;;;5104640;28;20377;-82
2021/04/07 04:59:40;;;;;;;28.73;19.10;;;7.70;73.00;;;;;;5105388;28;20028;-81
2021/04/07 05:02:06;;;;;;;29.65;17.95;;;7.80;73.70;;;;;;5107525;28;20016;-81
2021/04/07 05:04:31;;;;;;;28.52;19.13;;;7.80;73.00;;;;;;5094034;28;20020;-80
2021/04/07 05:06:57;;;;;;;30.10;17.80;;;7.90;73.00;;;;;;5094091;28;20074;-80
2021/04/07 05:09:23;;;;;;;25.27;16.98;;;7.90;72.70;;;;;;5093870;28;20385;-82
2021/04/07 05:11:49;;;;;;;25.33;17.95;;;8.00;72.60;;;;;;5093916;28;20055;-83
2021/04/07 05:14:15;;;;;;;22.05;16.83;;;8.00;72.70;;;;;;5092421;28;20020;-80
2021/04/07 05:16:41;;;;;;;34.10;19.23;;;8.00;72.50;;;;;;5093606;28;20124;-80
2021/04/07 05:19:06;;;;;;;29.50;16.98;;;8.00;72.80;;;;;;5096141;28;20104;-80
2021/04/07 05:21:32;;;;;;;27.55;16.88;;;8.10;72.30;;;;;;5093889;28;20158;-80
2021/04/07 05:23:58;;;;;;;29.40;19.27;;;8.00;72.50;;;;;;5093258;28;20016;-80
2021/04/07 05:26:24;;;;;;;38.20;21.35;;;8.00;72.70;;;;;;5093597;28;20076;-81
2021/04/07 05:28:57;;;;;;;29.00;19.17;;;8.10;72.90;;;;;;5093832;28;20020;-83
2021/04/07 05:31:23;;;;;;;41.05;19.63;;;8.20;73.00;;;;;;5093567;28;20325;-80
2021/04/07 05:33:49;;;;;;;29.67;19.02;;;8.20;72.70;;;;;;5093870;28;20024;-80
2021/04/07 05:36:21;;;;;;;23.52;17.13;;;8.20;72.70;;;;;;5093625;28;20792;-82
2021/04/07 05:38:47;;;;;;;29.30;18.65;;;8.20;73.30;;;;;;5093407;28;20103;-82
2021/04/07 05:41:14;;;;;;;27.02;19.90;;;8.20;72.90;;;;;;5093251;28;20111;-81
2021/04/07 05:43:40;;;;;;;29.63;20.10;;;8.20;72.80;;;;;;5092361;28;20169;-81
2021/04/07 05:46:06;;;;;;;33.05;20.92;;;8.30;72.90;;;;;;5092738;28;20040;-82
2021/04/07 05:48:32;;;;;;;29.65;20.40;;;8.40;72.90;;;;;;5092141;28;20042;-81
2021/04/07 05:50:58;;;;;;;28.05;18.67;;;8.40;72.80;;;;;;5093202;28;20551;-83
2021/04/07 05:53:25;;;;;;;22.42;17.60;;;8.50;72.50;;;;;;5094398;28;20032;-82
2021/04/07 05:55:53;;;;;;;25.50;18.52;;;8.50;72.60;;;;;;5093315;28;20068;-82
2021/04/07 05:58:20;;;;;;;27.95;16.27;;;8.40;73.00;;;;;;5092825;28;20070;-82
2021/04/07 06:00:46;;;;;;;25.37;19.33;;;8.30;73.30;;;;;;5091717;28;20043;-81
2021/04/07 06:03:13;;;;;;;26.05;18.85;;;8.20;73.90;;;;;;5093037;28;20311;-83
2021/04/07 06:05:42;;;;;;;40.92;20.67;;;8.30;74.30;;;;;;5092804;28;20093;-82
2021/04/07 06:08:09;;;;;;;35.38;20.27;;;8.30;74.50;;;;;;5093152;28;20016;-82
2021/04/07 06:10:40;;;;;;;25.53;18.67;;;8.50;74.10;;;;;;5092991;28;20036;-80
2021/04/07 06:13:07;;;;;;;29.33;18.63;;;8.50;73.90;;;;;;5093626;28;20028;-82
2021/04/07 06:15:33;;;;;;;30.80;19.50;;;8.50;74.30;;;;;;5093515;28;20024;-81
2021/04/07 06:18:01;;;;;;;25.35;20.13;;;8.50;74.30;;;;;;5088983;28;20365;-81
2021/04/07 06:20:33;;;;;;;29.60;21.08;;;8.60;74.30;;;;;;5100809;28;20024;-80
2021/04/07 06:23:00;;;;;;;24.77;18.10;;;8.60;73.80;;;;;;5097577;28;20033;-80
2021/04/07 06:25:27;;;;;;;26.83;20.52;;;8.50;73.70;;;;;;5103608;28;20051;-83
2021/04/07 06:27:56;;;;;;;29.85;18.80;;;8.40;74.50;;;;;;5082054;28;20577;-79
2021/04/07 06:30:24;;;;;;;30.02;21.13;;;8.40;75.00;;;;;;5082175;28;20070;-78
2021/04/07 06:32:53;;;;;;;27.25;20.40;;;8.50;75.40;;;;;;5087323;28;20024;-78
2021/04/07 06:35:19;;;;;;;22.75;17.83;;;8.50;75.20;;;;;;5092760;28;20025;-78
2021/04/07 06:37:44;;;;;;;27.75;18.77;;;8.50;75.20;;;;;;5092434;28;20027;-78
2021/04/07 06:40:10;;;;;;;28.48;20.63;;;8.40;75.30;;;;;;5092740;28;20054;-79
2021/04/07 06:42:37;;;;;;;25.00;19.88;;;8.40;75.60;;;;;;5092949;28;20030;-79
2021/04/07 06:45:04;;;;;;;25.52;21.00;;;8.50;75.30;;;;;;5093009;28;20016;-81
2021/04/07 06:47:40;;;;;;;27.35;19.38;;;8.50;75.10;;;;;;5092917;28;20040;-80
2021/04/07 06:50:07;;;;;;;32.92;23.05;;;8.60;74.90;;;;;;5093831;28;20016;-77
2021/04/07 06:52:33;;;;;;;32.58;21.33;;;8.90;74.80;;;;;;5093151;28;20388;-79
2021/04/07 06:54:58;;;;;;;28.63;21.13;;;9.30;73.90;;;;;;5094532;28;20013;-80
2021/04/07 06:57:24;;;;;;;26.23;19.42;;;9.70;72.50;;;;;;5093108;28;20021;-79
2021/04/07 06:59:50;;;;;;;35.50;22.40;;;10.00;71.60;;;;;;5096633;28;20038;-80
2021/04/07 07:02:16;;;;;;;28.92;20.38;;;10.40;70.80;;;;;;5096332;28;20016;-78
2021/04/07 07:04:44;;;;;;;37.63;21.95;;;10.90;69.50;;;;;;5095035;28;20024;-80
2021/04/07 07:07:10;;;;;;;27.33;20.00;;;11.40;67.40;;;;;;5096068;28;20032;-79
2021/04/07 07:09:36;;;;;;;23.45;18.38;;;12.00;65.80;;;;;;5096270;28;20028;-79
2021/04/07 07:12:03;;;;;;;26.52;18.77;;;12.60;63.20;;;;;;5094865;28;20451;-78
2021/04/07 07:14:41;;;;;;;28.42;17.98;;;13.00;61.40;;;;;;5095256;28;20020;-78
2021/04/07 07:17:07;;;;;;;27.30;19.15;;;13.50;60.00;;;;;;5095214;28;20043;-80
2021/04/07 07:19:33;;;;;;;28.48;19.77;;;14.20;58.00;;;;;;5096564;28;20023;-79
2021/04/07 07:22:01;;;;;;;24.52;17.25;;;15.20;55.90;;;;;;5095957;28;20119;-79
2021/04/07 07:24:38;;;;;;;26.88;19.15;;;15.40;53.00;;;;;;5095837;28;20023;-78
2021/04/07 07:27:07;;;;;;;24.65;18.15;;;14.50;53.50;;;;;;5094819;28;20043;-78
2021/04/07 07:29:36;;;;;;;27.58;19.83;;;14.50;54.90;;;;;;5095897;28;20035;-81
2021/04/07 07:32:04;;;;;;;29.77;18.85;;;14.90;54.30;;;;;;5096471;28;20392;-80
2021/04/07 07:34:31;;;;;;;24.75;17.77;;;16.40;52.40;;;;;;5096768;28;20019;-80
2021/04/07 07:36:58;;;;;;;35.75;18.02;;;17.60;49.40;;;;;;5096286;28;20449;-78
2021/04/07 07:39:30;;;;;;;21.42;18.05;;;17.70;46.20;;;;;;5096692;28;20031;-80
2021/04/07 07:42:01;;;;;;;23.92;17.52;;;16.60;48.00;;;;;;5095946;28;20024;-78
2021/04/07 07:44:30;;;;;;;22.67;17.88;;;16.80;48.80;;;;;;5095812;28;20031;-78
2021/04/07 07:47:03;;;;;;;21.17;17.52;;;17.10;47.30;;;;;;5095292;28;20388;-79
2021/04/07 07:49:30;;;;;;;25.50;17.45;;;16.70;47.60;;;;;;5095318;28;20031;-78
2021/04/07 07:51:56;;;;;;;26.63;18.77;;;16.70;47.50;;;;;;5095410;28;20024;-80
2021/04/07 07:54:23;;;;;;;20.70;16.75;;;16.10;48.10;;;;;;5095517;28;20024;-78
2021/04/07 07:56:51;;;;;;;19.55;16.98;;;15.90;48.20;;;;;;5095300;28;20439;-79
2021/04/07 07:59:26;;;;;;;;;;;15.60;49.50;;;;;;5095783;28;20020;-78
2021/04/07 08:01:51;;;;;;;17.55;14.02;;;16.50;49.50;;;;;;5095109;28;20031;-78
2021/04/07 08:04:18;;;;;;;23.40;14.88;;;16.20;47.00;;;;;;5096620;28;20093;-80
2021/04/07 08:06:45;;;;;;;23.13;16.00;;;16.00;47.30;;;;;;5096744;28;20373;-79
2021/04/07 08:09:12;;;;;;;16.65;12.93;;;16.10;47.90;;;;;;5094902;28;20018;-80
2021/04/07 08:11:42;;;;;;;24.38;15.25;;;16.20;46.90;;;;;;5094976;28;20060;-78
2021/04/07 08:14:11;;;;;;;18.10;13.90;;;15.90;46.50;;;;;;5093621;28;20127;-78
2021/04/07 08:16:37;;;;;;;26.98;13.82;;;15.50;47.50;;;;;;5093993;28;20138;-78
2021/04/07 08:19:04;;;;;;;17.40;13.00;;;15.40;48.10;;;;;;5093657;28;20050;-78
2021/04/07 08:21:30;;;;;;;19.52;15.27;;;14.60;49.20;;;;;;5095361;28;20422;-78
2021/04/07 08:24:00;;;;;;;20.02;14.98;;;13.70;51.60;;;;;;5094834;28;20069;-79
2021/04/07 08:26:29;;;;;;;14.57;9.70;;;13.40;52.70;;;;;;5094664;28;20039;-79
2021/04/07 08:28:56;;;;;;;18.30;11.23;;;13.10;52.90;;;;;;5094581;28;20012;-78
2021/04/07 08:31:24;;;;;;;16.85;12.65;;;13.00;54.00;;;;;;5094604;28;20059;-78
2021/04/07 08:33:52;;;;;;;18.70;12.73;;;13.50;53.70;;;;;;5094419;28;20119;-77
2021/04/07 08:36:21;;;;;;;16.63;11.93;;;13.70;52.00;;;;;;5094825;28;20020;-79
2021/04/07 08:38:47;;;;;;;19.13;12.25;;;13.30;52.30;;;;;;5094699;28;20381;-78
2021/04/07 08:41:18;;;;;;;18.48;13.68;;;13.00;53.30;;;;;;5093204;28;20062;-78
2021/04/07 08:43:44;;;;;;;17.10;10.35;;;12.60;54.40;;;;;;5094677;28;20119;-79
2021/04/07 08:46:20;;;;;;;14.38;10.57;;;12.40;53.80;;;;;;5094615;28;20170;-78
2021/04/07 08:48:45;;;;;;;13.02;9.10;;;12.20;54.10;;;;;;5093295;28;20030;-78
2021/04/07 08:51:13;;;;;;;12.30;8.38;;;12.10;54.20;;;;;;5094001;28;20024;-78
2021/04/07 08:53:44;;;;;;;11.73;7.45;;;12.00;53.70;;;;;;5094479;28;20373;-78
2021/04/07 08:56:11;;;;;;;10.52;8.40;;;11.80;53.20;;;;;;5094188;28;20023;-77
2021/04/07 08:59:01;;;;;;;9.73;7.50;;;11.70;53.90;;;;;;5094063;28;20032;-78
2021/04/07 09:01:31;;;;;;;13.98;6.78;;;11.70;53.90;;;;;;5083832;28;20047;-78
2021/04/07 09:04:19;;;;;;;9.45;6.78;;;11.70;53.60;;;;;;5094371;28;20027;-78
2021/04/07 09:06:59;;;;;;;15.85;8.20;;;11.50;53.20;;;;;;5095214;28;20044;-80
2021/04/07 09:09:24;;;;;;;14.00;8.45;;;11.40;54.20;;;;;;5080234;28;20075;-79
2021/04/07 09:11:52;;;;;;;15.25;8.38;;;11.40;54.30;;;;;;5095712;28;20101;-79
2021/04/07 09:14:19;;;;;;;14.65;8.80;;;11.40;54.40;;;;;;5094432;28;20012;-79
2021/04/07 09:16:45;;;;;;;8.38;5.30;;;11.50;54.60;;;;;;5093660;28;20028;-77
2021/04/07 09:19:22;;;;;;;9.55;6.80;;;11.40;53.40;;;;;;5093988;28;20113;-78
2021/04/07 09:21:57;;;;;;;7.57;6.03;;;11.30;54.10;;;;;;5092991;28;20032;-78
2021/04/07 09:24:27;;;;;;;12.45;7.60;;;11.40;54.10;;;;;;5093776;28;20016;-78
2021/04/07 09:26:55;;;;;;;11.73;8.35;;;11.50;54.20;;;;;;5094826;28;20032;-78
2021/04/07 09:29:22;;;;;;;14.95;7.97;;;11.90;53.70;;;;;;5095387;28;20091;-79
2021/04/07 09:31:51;;;;;;;16.07;7.63;;;12.30;52.30;;;;;;5094684;28;20024;-79
2021/04/07 09:34:18;;;;;;;13.90;8.93;;;13.00;51.40;;;;;;5093614;28;20024;-79
2021/04/07 09:36:46;;;;;;;18.83;9.20;;;14.00;50.90;;;;;;5093603;28;20024;-81
2021/04/07 09:39:14;;;;;;;17.65;10.18;;;15.70;49.60;;;;;;5092222;28;20028;-79
2021/04/07 09:41:42;;;;;;;19.00;9.60;;;17.80;45.50;;;;;;5093524;28;20036;-80
2021/04/07 09:44:10;;;;;;;25.45;13.00;;;19.70;41.40;;;;;;5094429;28;20024;-79
2021/04/07 09:46:37;;;;;;;13.07;8.50;;;21.60;38.50;;;;;;5093492;28;20040;-81
2021/04/07 09:49:11;;;;;;;17.40;8.68;;;23.20;35.40;;;;;;5093010;28;20069;-81
2021/04/07 09:51:42;;;;;;;17.80;8.25;;;24.30;33.60;;;;;;5092990;28;20032;-80
2021/04/07 09:54:22;;;;;;;9.25;7.47;;;25.10;31.40;;;;;;5093631;28;20019;-80
2021/04/07 09:56:54;;;;;;;8.95;7.45;;;25.70;30.10;;;;;;5091761;28;20016;-80
2021/04/07 09:59:42;;;;;;;14.35;7.82;;;24.90;29.20;;;;;;5092064;28;20088;-79
2021/04/07 10:02:13;;;;;;;11.73;7.30;;;24.10;30.30;;;;;;5079011;28;20020;-80
2021/04/07 10:04:41;;;;;;;10.10;7.15;;;23.80;29.70;;;;;;5092988;28;20107;-78
2021/04/07 10:07:16;;;;;;;7.68;6.68;;;23.30;30.30;;;;;;5092954;28;20032;-80
2021/04/07 10:09:45;;;;;;;14.32;7.88;;;23.70;30.30;;;;;;5093044;28;20020;-80
2021/04/07 10:12:11;;;;;;;19.10;7.80;;;22.10;30.90;;;;;;5092613;28;20047;-79
2021/04/07 10:14:38;;;;;;;15.43;8.40;;;21.00;32.50;;;;;;5092850;28;20020;-80
2021/04/07 10:17:19;;;;;;;9.85;7.88;;;20.60;33.50;;;;;;5092953;28;20059;-79
2021/04/07 10:19:45;;;;;;;11.82;9.68;;;19.80;34.10;;;;;;5079941;28;20068;-79
2021/04/07 10:22:17;;;;;;;15.40;8.55;;;18.40;36.30;;;;;;5092865;28;20027;-80
2021/04/07 10:24:47;;;;;;;11.77;9.10;;;17.80;37.80;;;;;;5078756;28;20032;-79
2021/04/07 10:27:24;;;;;;;17.23;7.88;;;17.30;38.30;;;;;;5091161;28;20035;-78
2021/04/07 10:30:08;;;;;;;20.20;11.83;;;16.20;39.10;;;;;;5079559;28;20047;-79
2021/04/07 10:32:50;;;;;;;16.27;9.27;;;15.70;40.60;;;;;;5092584;28;20197;-79
2021/04/07 10:35:27;;;;;;;12.15;8.07;;;15.00;41.00;;;;;;5090940;28;20024;-78
2021/04/07 10:37:57;;;;;;;11.55;6.15;;;14.60;41.90;;;;;;5092638;28;22494;-78
2021/04/07 10:40:45;;;;;;;12.57;7.43;;;14.40;41.90;;;;;;5092250;28;20023;-79
2021/04/07 10:43:18;;;;;;;16.27;8.88;;;13.80;43.30;;;;;;5092216;28;20105;-80
2021/04/07 10:45:58;;;;;;;18.27;9.45;;;13.80;44.30;;;;;;5092189;28;20111;-79
2021/04/07 10:48:24;;;;;;;20.20;7.88;;;14.10;44.40;;;;;;5092370;28;20020;-79
2021/04/07 10:50:50;;;;;;;14.73;7.40;;;14.20;44.20;;;;;;5093047;28;20020;-80
2021/04/07 10:53:26;;;;;;;12.10;6.15;;;14.40;43.70;;;;;;5092395;28;20472;-79
2021/04/07 10:55:52;;;;;;;10.18;7.80;;;13.90;44.20;;;;;;5092537;28;20032;-80
2021/04/07 10:58:25;;;;;;;11.30;7.32;;;13.40;45.50;;;;;;5092236;28;20042;-79
2021/04/07 11:00:51;;;;;;;10.90;7.72;;;13.50;45.90;;;;;;5092159;28;20110;-80
2021/04/07 11:03:29;;;;;;;17.27;10.07;;;13.50;46.10;;;;;;5092059;28;20103;-78
2021/04/07 11:05:55;;;;;;;30.85;14.23;;;13.80;46.20;;;;;;5092456;28;20042;-77
2021/04/07 11:08:20;;;;;;;20.60;10.50;;;14.10;45.80;;;;;;5092830;28;20021;-79
2021/04/07 11:10:49;;;;;;;13.65;9.38;;;14.30;45.20;;;;;;5092154;28;20043;-80
2021/04/07 11:13:17;;;;;;;12.57;8.55;;;14.20;45.10;;;;;;5091365;28;20469;-80
2021/04/07 11:15:43;;;;;;;15.18;9.75;;;14.10;45.50;;;;;;5092198;28;20024;-78
2021/04/07 11:18:09;;;;;;;11.43;9.82;;;14.00;46.30;;;;;;5092432;28;20024;-79
2021/04/07 11:20:36;;;;;;;13.38;8.65;;;13.90;46.20;;;;;;5093856;28;20042;-80
2021/04/07 11:23:02;;;;;;;12.98;9.45;;;13.60;45.90;;;;;;5093498;28;20027;-79
2021/04/07 11:25:28;;;;;;;12.18;9.38;;;13.30;46.60;;;;;;5092010;28;20024;-79
2021/04/07 11:27:57;;;;;;;15.00;11.40;;;13.30;47.00;;;;;;5092025;28;20365;-80
2021/04/07 11:30:24;;;;;;;22.45;11.32;;;13.20;46.90;;;;;;5092115;28;20103;-79
2021/04/07 11:32:54;;;;;;;15.57;10.10;;;13.20;46.10;;;;;;5091749;28;20023;-79
2021/04/07 11:35:26;;;;;;;14.95;10.65;;;13.00;46.20;;;;;;5091879;28;20073;-78
2021/04/07 11:37:58;;;;;;;16.95;8.25;;;13.00;46.10;;;;;;5091946;28;20353;-78
2021/04/07 11:43:04;;;;;;;12.32;8.30;;;12.80;43.60;;;;;;5092243;28;20384;-79
2021/04/07 11:45:30;;;;;;;11.30;7.13;;;12.60;43.10;;;;;;5093912;28;20035;-78
2021/04/07 11:47:56;;;;;;;13.90;7.63;;;12.40;43.20;;;;;;5095782;28;20032;-78
2021/04/07 11:50:21;;;;;;;9.55;6.53;;;12.20;43.40;;;;;;5096448;28;20392;-78
2021/04/07 11:52:47;;;;;;;13.82;8.35;;;12.20;43.40;;;;;;5095928;28;20157;-78
2021/04/07 11:55:13;;;;;;;12.60;7.38;;;12.10;43.40;;;;;;5095459;28;20448;-80
2021/04/07 11:57:39;;;;;;;11.70;7.30;;;12.20;43.40;;;;;;5095753;28;20093;-81
2021/04/07 12:00:07;;;;;;;23.65;8.38;;;12.30;43.50;;;;;;5095355;28;20104;-79
2021/04/07 12:02:34;;;;;;;;;;;12.40;43.30;;;;;;5094468;28;20027;-79
2021/04/07 12:05:00;;;;;;;14.80;7.47;;;12.30;43.20;;;;;;5095671;28;19958;-78
2021/04/07 12:07:27;;;;;;;12.00;8.73;;;12.30;43.50;;;;;;5095670;28;20043;-78
2021/04/07 12:09:52;;;;;;;6.97;5.63;;;12.30;43.50;;;;;;5097213;28;20048;-78
2021/04/07 12:12:18;;;;;;;12.00;6.93;;;12.40;43.10;;;;;;5095852;28;20106;-79
2021/04/07 12:14:44;;;;;;;10.13;7.13;;;12.30;42.90;;;;;;5093897;28;20111;-79
2021/04/07 12:17:10;;;;;;;16.10;7.55;;;12.20;43.00;;;;;;5095209;28;20040;-79
2021/04/07 12:19:36;;;;;;;12.50;5.82;;;12.20;43.20;;;;;;5095043;28;20017;-77
2021/04/07 12:22:02;;;;;;;9.05;5.25;;;12.10;42.40;;;;;;5093822;28;20114;-79
2021/04/07 12:24:29;;;;;;;11.45;6.45;;;11.90;42.50;;;;;;5095092;28;20016;-79
2021/04/07 12:26:55;;;;;;;7.35;5.22;;;11.80;42.60;;;;;;5095068;28;20028;-78
2021/04/07 12:29:22;;;;;;;8.90;6.20;;;11.70;43.10;;;;;;5094979;28;20028;-78
2021/04/07 12:31:48;;;;;;;8.30;4.57;;;11.60;43.40;;;;;;5094913;28;20468;-80
2021/04/07 12:34:15;;;;;;;7.57;4.15;;;11.50;43.70;;;;;;5094487;28;20028;-79
2021/04/07 12:36:41;;;;;;;11.75;5.82;;;11.40;44.00;;;;;;5094983;28;20542;-78
2021/04/07 12:39:07;;;;;;;11.90;5.80;;;11.30;44.50;;;;;;5095116;28;20118;-81
2021/04/07 12:44:08;;;;;;;11.40;5.93;;;11.40;44.90;;;;;;5094629;28;20016;-79
2021/04/07 12:46:34;;;;;;;8.80;5.25;;;11.40;45.00;;;;;;5094476;28;20154;-80